Terminal Aerodrome Forecast
Issued by NWS

Home | Current Version | Previous Version | Text Only | Print | Product List | Glossary Off
Versions: 1 2 3 4 5 6 7 8 9 10 11 12

000
FTUS41 KCLE 022341
TAFFDY
TAF
KFDY 022341Z 0300/0324 05008KT P6SM SCT250
     FM030300 05006KT P6SM BKN250
     FM031300 05008KT P6SM OVC250=

USA.gov is the U.S. government's official web portal to all federal, state and local government web resources and services.